TFM - Tactical Decision Aid (Experimental) INFO Settings
ID: Runway Winds: CIG/VIS Threshold: METAR Board: Map:

KGLH - Greenville-Mid Delta Rgnl

Updated at: 2146 UTC 15 Dec 2017
Latest TAF at: 1723 UTC 15 Dec 2017

TAF Board

Time2053Z15/22Z15/23Z16/00Z16/01Z16/02Z16/03Z16/04Z16/05Z16/06Z16/07Z16/08Z16/09Z16/10Z
TypeOBSPRVLPRVLPRVLPRVLPRVLPRVLPRVLPRVLPRVLPRVLPRVLPRVLPRVL
VIS9>6>6>6>6>6>6>6>6>6>6>6>6>6
CIG----------------------------
CoverCLRSCTSCTSCTSCTSCTSCTSCTSCTSCTSCTSCTSCTSCT
FltCatVFRVFRVFRVFRVFRVFRVFRVFRVFRVFRVFRVFRVFRVFR
WX----------------------------
WDirVRB330330330330330330330330330330330330330
WSpd04444444444444
WGst----------------------------
TAF
KGLH 151723Z 1518/1618 33004KT P6SM SCT250

METAR Board

Time15/10Z 15/11Z 15/12Z 15/13Z 15/14Z 15/15Z 15/16Z 15/17Z 15/18Z 15/19Z 15/20Z 15/21Z
VIS10 10 10 10 10 10 10 10 10 10 10 9
CIG-- -- -- -- -- -- -- -- -- -- -- --
CoverCLRCLRCLRCLRCLRCLRCLRCLRCLRCLRCLRCLR
FltCatVFRVFRVFRVFRVFRVFRVFRVFRVFRVFRVFRVFR
WX------------------------
WDir35034032032033034036000000
WSpd6 3 3 3 4 5 3 0 0 0 4 0
WGst-- -- -- -- -- -- -- -- -- -- -- --
METAR
KGLH 150953Z AUTO 35006KT 10SM CLR M01/M04 A3017 RMK AO2 SLP225 T10061039
KGLH 151053Z AUTO 34003KT 10SM CLR M01/M04 A3018 RMK AO2 SLP228 T10061039
KGLH 151153Z AUTO 32003KT 10SM CLR 01/M03 A3021 RMK AO2 SLP238 T00061033 10028 21011 53013
KGLH 151253Z 32003KT 10SM CLR 01/M03 A3023 RMK AO2 SLP245 T00061033
KGLH 151353Z 33004KT 10SM CLR 01/M02 A3023 RMK AO2 SLP246 T00061022
KGLH 151453Z 34005KT 10SM CLR 03/M02 A3026 RMK AO2 SLP255 T00281017 53017
KGLH 151553Z 36003KT 10SM CLR 04/M03 A3029 RMK AO2 SLP267 T00441028
KGLH 151653Z 00000KT 10SM CLR 05/M03 A3029 RMK AO2 SLP267 T00501028
KGLH 151753Z 00000KT 10SM CLR 06/M04 A3027 RMK AO2 SLP259 T00611044 10061 20000 50004
KGLH 151853Z 00000KT 10SM CLR 07/M05 A3023 RMK AO2 SLP247 T00671050
KGLH 151953Z VRB04KT 10SM CLR 07/M05 A3023 RMK AO2 SLP246 T00671050
KGLH 152053Z 00000KT 9SM CLR 08/M05 A3022 RMK AO2 SLP241 T00781050 56018

TAF/METAR Board Legend

Potential Impact
  None Marginal Slight Moderate High
Visibility (sm) >5 3≤X≤5 2≤X<3 0.5≤X<2 <0.5
Ceiling (100 ft) >30 10≤X≤30 6≤X<10 2≤X<6 <2
Wind Speed (kt) <10 10≤X<20 20≤X<30 ≥30
Wind Gust (kt) <15 15≤X<25 25≤X<35 ≥35
Weather No Wx Reported VCTS -TS,-FZRA TS,FZRA +TS,+FZRA